createdAt,value
2023-04-22T00:00:27.343Z,1012.09
2023-04-22T00:01:27.716Z,1012.00
2023-04-22T00:02:28.107Z,1012.09
2023-04-22T00:03:28.623Z,1012.02
2023-04-22T00:04:28.850Z,1012.04
2023-04-22T00:05:29.193Z,1012.01
2023-04-22T00:06:29.481Z,1012.01
2023-04-22T00:07:29.801Z,1011.98
2023-04-22T00:08:30.158Z,1011.89
2023-04-22T00:09:30.517Z,1011.96
2023-04-22T00:10:30.874Z,1011.85
2023-04-22T00:11:31.260Z,1012.00
2023-04-22T00:12:31.598Z,1011.86
2023-04-22T00:13:31.953Z,1011.86
2023-04-22T00:14:32.313Z,1011.90
2023-04-22T00:15:32.716Z,1011.87
2023-04-22T00:16:33.069Z,1011.84
2023-04-22T00:17:33.443Z,1011.83
2023-04-22T00:18:33.734Z,1011.85
2023-04-22T00:19:34.083Z,1011.82
2023-04-22T00:20:34.476Z,1011.82
2023-04-22T00:21:34.835Z,1011.81
2023-04-22T00:22:35.159Z,1011.78
2023-04-22T00:23:35.537Z,1011.76
2023-04-22T00:24:35.879Z,1011.79
2023-04-22T00:25:36.333Z,1011.69
2023-04-22T00:26:36.590Z,1011.73
2023-04-22T00:27:36.952Z,1011.73
2023-04-22T00:28:37.286Z,1011.64
2023-04-22T00:29:37.804Z,1011.67
2023-04-22T00:30:38.049Z,1011.68
2023-04-22T00:31:38.468Z,1011.67
2023-04-22T00:32:38.765Z,1011.66
2023-04-22T00:33:39.095Z,1011.66
2023-04-22T00:34:39.443Z,1011.68
2023-04-22T00:35:39.815Z,1011.68
2023-04-22T00:36:40.219Z,1011.65
2023-04-22T00:37:40.533Z,1011.71
2023-04-22T00:38:40.883Z,1011.61
2023-04-22T00:39:41.576Z,1011.65
2023-04-22T00:40:41.615Z,1011.65
2023-04-22T00:41:42.264Z,1011.64
2023-04-22T00:42:42.320Z,1011.59
2023-04-22T00:43:42.688Z,1011.66
2023-04-22T00:44:43.050Z,1011.63
2023-04-22T00:45:43.406Z,1011.67
2023-04-22T00:46:43.799Z,1011.61
2023-04-22T00:47:44.216Z,1011.64
2023-04-22T00:48:44.490Z,1011.61
2023-04-22T00:49:44.843Z,1011.63
2023-04-22T00:50:45.214Z,1011.58
2023-04-22T00:51:45.579Z,1011.60
2023-04-22T00:52:45.914Z,1011.60
2023-04-22T00:53:46.276Z,1011.56
2023-04-22T00:54:46.641Z,1011.56
2023-04-22T00:55:47.008Z,1011.52
2023-04-22T00:56:47.407Z,1011.46
2023-04-22T00:57:47.716Z,1011.48
2023-04-22T00:58:48.081Z,1011.51
2023-04-22T00:59:48.447Z,1011.41
2023-04-22T01:00:48.895Z,1011.50
2023-04-22T01:01:49.212Z,1011.40
2023-04-22T01:02:49.671Z,1011.43
2023-04-22T01:03:50.227Z,1011.44
2023-04-22T01:04:50.260Z,1011.41
2023-04-22T01:05:50.628Z,1011.41
2023-04-22T01:06:51.005Z,1011.44
2023-04-22T01:07:51.372Z,1011.44
2023-04-22T01:08:51.735Z,1011.36
2023-04-22T01:09:52.103Z,1011.40
2023-04-22T01:10:52.471Z,1011.39
2023-04-22T01:11:52.850Z,1011.39
2023-04-22T01:12:53.185Z,1011.37
2023-04-22T01:13:53.545Z,1011.37
2023-04-22T01:14:53.910Z,1011.36
2023-04-22T01:15:54.276Z,1011.37
2023-04-22T01:16:54.687Z,1011.36
2023-04-22T01:17:55.095Z,1011.32
2023-04-22T01:18:55.366Z,1011.31
2023-04-22T01:19:55.775Z,1011.31
2023-04-22T01:20:56.088Z,1011.31
2023-04-22T01:21:56.450Z,1011.33
2023-04-22T01:22:56.774Z,1011.36
2023-04-22T01:23:57.167Z,1011.31
2023-04-22T01:24:57.506Z,1011.34
2023-04-22T01:25:57.861Z,1011.24
2023-04-22T01:26:58.245Z,1011.28
2023-04-22T01:27:58.599Z,1011.31
2023-04-22T01:28:58.947Z,1011.29
2023-04-22T01:29:59.311Z,1011.24
2023-04-22T01:30:59.664Z,1011.25
2023-04-22T01:32:00.106Z,1011.25
2023-04-22T01:33:00.446Z,1011.27
2023-04-22T01:34:00.763Z,1011.24
2023-04-22T01:35:01.109Z,1011.26
2023-04-22T01:36:01.455Z,1011.23
2023-04-22T01:37:01.898Z,1011.23
2023-04-22T01:38:02.172Z,1011.23
2023-04-22T01:39:02.510Z,1011.15
2023-04-22T01:40:02.895Z,1011.19
2023-04-22T01:41:03.234Z,1011.20
2023-04-22T01:42:03.650Z,1011.19
2023-04-22T01:43:03.944Z,1011.18
2023-04-22T01:44:04.281Z,1011.18
2023-04-22T01:45:04.627Z,1011.21
2023-04-22T01:46:05.087Z,1011.17
2023-04-22T01:47:05.362Z,1011.16
2023-04-22T01:48:05.759Z,1011.11
2023-04-22T01:49:06.059Z,1011.06
2023-04-22T01:50:06.404Z,1011.13
2023-04-22T01:51:06.802Z,1011.12
2023-04-22T01:52:07.209Z,1011.09
2023-04-22T01:53:07.479Z,1011.12
2023-04-22T01:54:07.835Z,1011.12
2023-04-22T01:55:08.204Z,1011.09
2023-04-22T01:56:08.568Z,1011.06
2023-04-22T01:57:08.951Z,1011.03
2023-04-22T01:58:09.268Z,1011.05
2023-04-22T01:59:09.623Z,1011.07
2023-04-22T02:00:09.985Z,1011.09
2023-04-22T02:01:10.439Z,1011.04
2023-04-22T02:02:10.839Z,1011.05
2023-04-22T02:03:11.166Z,1010.99
2023-04-22T02:04:11.398Z,1010.95
2023-04-22T02:05:11.783Z,1010.97
2023-04-22T02:06:12.096Z,1010.97
2023-04-22T02:07:12.475Z,1010.96
2023-04-22T02:08:12.788Z,1010.96
2023-04-22T02:09:13.129Z,1010.92
2023-04-22T02:10:13.472Z,1010.97
2023-04-22T02:11:13.827Z,1010.96
2023-04-22T02:12:14.187Z,1010.93
2023-04-22T02:13:14.526Z,1010.93
2023-04-22T02:14:14.859Z,1010.97
2023-04-22T02:15:15.188Z,1010.98
2023-04-22T02:16:15.586Z,1010.95
2023-04-22T02:17:15.902Z,1010.88
2023-04-22T02:18:16.235Z,1010.92
2023-04-22T02:19:16.585Z,1010.86
2023-04-22T02:20:17.022Z,1010.84
2023-04-22T02:21:17.295Z,1010.90
2023-04-22T02:22:17.645Z,1010.81
2023-04-22T02:23:18.007Z,1010.85
2023-04-22T02:24:18.356Z,1010.85
2023-04-22T02:25:18.863Z,1010.80
2023-04-22T02:26:19.051Z,1010.76
2023-04-22T02:27:19.435Z,1010.79
2023-04-22T02:28:19.774Z,1010.74
2023-04-22T02:29:20.121Z,1010.73
2023-04-22T02:30:20.477Z,1010.75
2023-04-22T02:31:20.885Z,1010.72
2023-04-22T02:32:21.221Z,1010.70
2023-04-22T02:33:21.500Z,1010.71
2023-04-22T02:34:21.844Z,1010.68
2023-04-22T02:35:22.180Z,1010.67
2023-04-22T02:36:22.525Z,1010.58
2023-04-22T02:37:22.920Z,1010.61
2023-04-22T02:38:23.206Z,1010.58
2023-04-22T02:39:23.538Z,1010.60
2023-04-22T02:40:23.876Z,1010.57
2023-04-22T02:41:24.242Z,1010.52
2023-04-22T02:42:24.594Z,1010.55
2023-04-22T02:43:24.918Z,1010.48
2023-04-22T02:44:25.260Z,1010.49
2023-04-22T02:45:25.611Z,1010.49
2023-04-22T02:46:26.042Z,1010.44
2023-04-22T02:47:26.348Z,1010.43
2023-04-22T02:48:26.669Z,1010.43
2023-04-22T02:49:27.038Z,1010.40
2023-04-22T02:50:27.371Z,1010.44
2023-04-22T02:51:27.725Z,1010.43
2023-04-22T02:52:28.068Z,1010.45
2023-04-22T02:53:28.414Z,1010.47
2023-04-22T02:54:28.753Z,1010.45
2023-04-22T02:55:29.105Z,1010.45
2023-04-22T02:56:29.448Z,1010.45
2023-04-22T02:57:29.783Z,1010.46
2023-04-22T02:58:30.136Z,1010.46
2023-04-22T02:59:30.478Z,1010.49
2023-04-22T03:00:30.890Z,1010.48
2023-04-22T03:01:31.361Z,1010.41
2023-04-22T03:02:31.694Z,1010.37
2023-04-22T03:03:32.143Z,1010.43
2023-04-22T03:04:32.269Z,1010.38
2023-04-22T03:05:32.595Z,1010.38
2023-04-22T03:06:32.975Z,1010.35
2023-04-22T03:07:33.323Z,1010.36
2023-04-22T03:08:33.657Z,1010.37
2023-04-22T03:09:34.019Z,1010.34
2023-04-22T03:10:34.399Z,1010.36
2023-04-22T03:11:34.722Z,1010.36
2023-04-22T03:12:35.081Z,1010.36
2023-04-22T03:13:35.459Z,1010.36
2023-04-22T03:14:35.780Z,1010.35
2023-04-22T03:15:36.119Z,1010.26
2023-04-22T03:16:36.519Z,1010.22
2023-04-22T03:17:36.996Z,1010.24
2023-04-22T03:18:37.160Z,1010.22
2023-04-22T03:19:37.594Z,1010.20
2023-04-22T03:20:37.863Z,1010.15
2023-04-22T03:21:38.212Z,1010.19
2023-04-22T03:22:38.653Z,1010.17
2023-04-22T03:23:38.900Z,1010.16
2023-04-22T03:24:39.236Z,1010.17
2023-04-22T03:25:39.601Z,1010.18
2023-04-22T03:26:39.974Z,1010.15
2023-04-22T03:27:40.383Z,1010.14
2023-04-22T03:28:40.570Z,1010.05
2023-04-22T03:29:41.175Z,1010.05
2023-04-22T03:30:41.133Z,1010.11
2023-04-22T03:31:41.456Z,1010.04
2023-04-22T03:32:41.862Z,1010.09
2023-04-22T03:33:42.057Z,1010.02
2023-04-22T03:34:42.357Z,1009.99
2023-04-22T03:35:42.687Z,1010.00
2023-04-22T03:36:42.928Z,1009.99
2023-04-22T03:37:43.242Z,1009.97
2023-04-22T03:38:43.522Z,1009.96
2023-04-22T03:39:43.823Z,1009.98
2023-04-22T03:40:44.091Z,1009.90
2023-04-22T03:41:44.372Z,1009.95
2023-04-22T03:42:44.677Z,1009.92
2023-04-22T03:43:44.957Z,1009.91
2023-04-22T03:44:45.255Z,1009.87
2023-04-22T03:45:45.580Z,1009.93
2023-04-22T03:46:45.738Z,1009.86
2023-04-22T03:47:46.044Z,1009.88
2023-04-22T03:48:46.292Z,1009.81
2023-04-22T03:49:46.477Z,1009.78
2023-04-22T03:50:46.755Z,1009.81
2023-04-22T03:51:47.080Z,1009.80
2023-04-22T03:52:47.365Z,1009.85
2023-04-22T03:53:47.648Z,1009.80
2023-04-22T03:54:47.939Z,1009.84
2023-04-22T03:55:48.094Z,1009.79
2023-04-22T03:56:48.407Z,1009.84
2023-04-22T03:57:48.690Z,1009.86
2023-04-22T03:58:48.844Z,1009.85
2023-04-22T03:59:49.005Z,1009.82
2023-04-22T04:00:49.312Z,1009.80
2023-04-22T04:01:49.457Z,1009.84
2023-04-22T04:02:49.974Z,1009.78
2023-04-22T04:03:50.055Z,1009.78
2023-04-22T04:04:50.450Z,1009.77
2023-04-22T04:05:50.497Z,1009.77
2023-04-22T04:06:50.555Z,1009.81
2023-04-22T04:07:50.742Z,1009.85
2023-04-22T04:08:50.910Z,1009.84
2023-04-22T04:09:51.078Z,1009.82
2023-04-22T04:10:51.255Z,1009.82
2023-04-22T04:11:51.462Z,1009.82
2023-04-22T04:12:51.607Z,1009.77
2023-04-22T04:13:51.889Z,1009.78
2023-04-22T04:14:52.196Z,1009.80
2023-04-22T04:15:52.388Z,1009.81
2023-04-22T04:16:52.539Z,1009.80
2023-04-22T04:17:52.829Z,1009.81
2023-04-22T04:18:52.992Z,1009.80
2023-04-22T04:19:53.168Z,1009.84
2023-04-22T04:20:53.359Z,1009.83
2023-04-22T04:21:53.611Z,1009.82
2023-04-22T04:22:53.800Z,1009.83
2023-04-22T04:23:53.954Z,1009.82
2023-04-22T04:24:54.251Z,1009.82
2023-04-22T04:25:54.426Z,1009.80
2023-04-22T04:26:54.615Z,1009.79
2023-04-22T04:27:54.912Z,1009.82
2023-04-22T04:28:55.053Z,1009.83
2023-04-22T04:29:55.230Z,1009.79
2023-04-22T04:30:55.444Z,1009.79
2023-04-22T04:31:55.664Z,1009.73
2023-04-22T04:32:55.893Z,1009.68
2023-04-22T04:33:55.996Z,1009.72
2023-04-22T04:34:56.176Z,1009.70
2023-04-22T04:35:56.343Z,1009.73
2023-04-22T04:36:56.516Z,1009.69
2023-04-22T04:37:56.754Z,1009.67
2023-04-22T04:38:56.982Z,1009.70
2023-04-22T04:39:57.136Z,1009.66
2023-04-22T04:40:57.332Z,1009.69
2023-04-22T04:41:57.505Z,1009.68
2023-04-22T04:42:57.819Z,1009.67
2023-04-22T04:43:57.991Z,1009.67
2023-04-22T04:44:58.321Z,1009.63
2023-04-22T04:45:58.483Z,1009.62
2023-04-22T04:46:58.765Z,1009.58
2023-04-22T04:47:58.891Z,1009.57
2023-04-22T04:48:59.004Z,1009.55
2023-04-22T04:49:59.183Z,1009.51
2023-04-22T04:50:59.352Z,1009.60
2023-04-22T04:51:59.528Z,1009.59
2023-04-22T04:52:59.701Z,1009.63
2023-04-22T04:53:59.889Z,1009.69
2023-04-22T04:55:00.081Z,1009.72
2023-04-22T04:56:00.248Z,1009.76
2023-04-22T04:57:00.416Z,1009.73
2023-04-22T04:58:00.628Z,1009.76
2023-04-22T04:59:00.763Z,1009.78
2023-04-22T05:00:00.947Z,1009.75
2023-04-22T05:01:01.124Z,1009.71
2023-04-22T05:02:01.324Z,1009.73
2023-04-22T05:03:01.626Z,1009.76
2023-04-22T05:04:01.848Z,1009.72
2023-04-22T05:05:01.883Z,1009.73
2023-04-22T05:06:02.017Z,1009.67
2023-04-22T05:07:02.217Z,1009.65
2023-04-22T05:08:02.432Z,1009.58
2023-04-22T05:09:02.564Z,1009.55
2023-04-22T05:10:02.779Z,1009.55
2023-04-22T05:11:02.972Z,1009.54
2023-04-22T05:12:03.152Z,1009.49
2023-04-22T05:13:04.410Z,1009.48
2023-04-22T05:14:03.471Z,1009.46
2023-04-22T05:15:03.690Z,1009.40
2023-04-22T05:16:03.868Z,1009.42
2023-04-22T05:17:04.050Z,1009.45
2023-04-22T05:18:04.265Z,1009.48
2023-04-22T05:19:04.419Z,1009.53
2023-04-22T05:20:04.612Z,1009.57
2023-04-22T05:21:04.810Z,1009.48
2023-04-22T05:22:04.990Z,1009.54
2023-04-22T05:23:05.191Z,1009.52
2023-04-22T05:24:05.338Z,1009.49
2023-04-22T05:25:05.554Z,1009.55
2023-04-22T05:26:05.709Z,1009.47
2023-04-22T05:27:05.885Z,1009.56
2023-04-22T05:28:06.124Z,1009.49
2023-04-22T05:29:06.259Z,1009.56
2023-04-22T05:30:06.444Z,1009.50
2023-04-22T05:31:06.632Z,1009.46
2023-04-22T05:32:06.905Z,1009.44
2023-04-22T05:33:07.075Z,1009.44
2023-04-22T05:34:07.222Z,1009.47
2023-04-22T05:35:07.408Z,1009.52
2023-04-22T05:36:07.596Z,1009.51
2023-04-22T05:37:07.779Z,1009.52
2023-04-22T05:38:07.988Z,1009.55
2023-04-22T05:39:08.141Z,1009.55
2023-04-22T05:40:08.378Z,1009.54
2023-04-22T05:41:08.514Z,1009.50
2023-04-22T05:42:08.707Z,1009.51
2023-04-22T05:43:08.944Z,1009.50
2023-04-22T05:44:09.073Z,1009.55
2023-04-22T05:45:09.291Z,1009.54
2023-04-22T05:46:09.521Z,1009.50
2023-04-22T05:47:09.673Z,1009.50
2023-04-22T05:48:09.898Z,1009.48
2023-04-22T05:49:10.061Z,1009.53
2023-04-22T05:50:10.257Z,1009.49
2023-04-22T05:51:10.463Z,1009.51
2023-04-22T05:52:10.610Z,1009.51
2023-04-22T05:53:10.795Z,1009.51
2023-04-22T05:54:10.971Z,1009.50
2023-04-22T05:55:11.174Z,1009.51
2023-04-22T05:56:11.353Z,1009.48
2023-04-22T05:57:11.559Z,1009.48
2023-04-22T05:58:11.709Z,1009.48
2023-04-22T05:59:11.892Z,1009.53
2023-04-22T06:00:12.078Z,1009.54
2023-04-22T06:01:12.290Z,1009.42
2023-04-22T06:02:12.514Z,1009.46
2023-04-22T06:03:12.796Z,1009.45
2023-04-22T06:04:13.165Z,1009.48
2023-04-22T06:05:13.256Z,1009.45
2023-04-22T06:06:13.203Z,1009.43
2023-04-22T06:07:13.357Z,1009.48
2023-04-22T06:08:13.541Z,1009.45
2023-04-22T06:09:13.720Z,1009.41
2023-04-22T06:10:13.915Z,1009.42
2023-04-22T06:11:14.134Z,1009.40
2023-04-22T06:12:14.292Z,1009.38
2023-04-22T06:13:14.484Z,1009.39
2023-04-22T06:14:14.678Z,1009.37
2023-04-22T06:15:14.848Z,1009.39
2023-04-22T06:16:15.082Z,1009.39
2023-04-22T06:17:15.204Z,1009.42
2023-04-22T06:18:15.412Z,1009.40
2023-04-22T06:19:15.590Z,1009.43
2023-04-22T06:20:15.774Z,1009.42
2023-04-22T06:21:15.965Z,1009.37
2023-04-22T06:22:16.155Z,1009.35
2023-04-22T06:23:16.343Z,1009.39
2023-04-22T06:24:16.532Z,1009.39
2023-04-22T06:25:16.745Z,1009.36
2023-04-22T06:26:16.924Z,1009.37
2023-04-22T06:27:17.071Z,1009.34
2023-04-22T06:28:17.262Z,1009.43
2023-04-22T06:29:17.455Z,1009.44
2023-04-22T06:30:17.610Z,1009.46
2023-04-22T06:31:18.950Z,1009.43
2023-04-22T06:32:18.000Z,1009.43
2023-04-22T06:33:18.176Z,1009.44
2023-04-22T06:34:18.352Z,1009.40
2023-04-22T06:35:18.526Z,1009.38
2023-04-22T06:36:18.750Z,1009.39
2023-04-22T06:37:18.907Z,1009.36
2023-04-22T06:38:19.089Z,1009.36
2023-04-22T06:39:19.269Z,1009.40
2023-04-22T06:40:19.453Z,1009.42
2023-04-22T06:41:19.657Z,1009.33
2023-04-22T06:42:19.807Z,1009.37
2023-04-22T06:43:19.998Z,1009.35
2023-04-22T06:44:20.183Z,1009.38
2023-04-22T06:45:20.373Z,1009.33
2023-04-22T06:46:20.612Z,1009.38
2023-04-22T06:47:20.784Z,1009.31
2023-04-22T06:48:20.917Z,1009.38
2023-04-22T06:49:21.094Z,1009.37
2023-04-22T06:50:21.274Z,1009.33
2023-04-22T06:51:21.495Z,1009.31
2023-04-22T06:52:22.779Z,1009.32
2023-04-22T06:53:21.852Z,1009.32
2023-04-22T06:54:22.017Z,1009.35
2023-04-22T06:55:22.198Z,1009.24
2023-04-22T06:56:22.404Z,1009.34
2023-04-22T06:57:22.573Z,1009.27
2023-04-22T06:58:22.746Z,1009.31
2023-04-22T06:59:22.914Z,1009.32
2023-04-22T07:00:23.097Z,1009.27
2023-04-22T07:01:23.310Z,1009.27
2023-04-22T07:02:23.504Z,1009.25
2023-04-22T07:03:23.904Z,1009.22
2023-04-22T07:04:23.869Z,1009.24
2023-04-22T07:05:24.023Z,1009.21
2023-04-22T07:06:24.194Z,1009.26
2023-04-22T07:07:24.366Z,1009.21
2023-04-22T07:08:24.556Z,1009.16
2023-04-22T07:09:24.750Z,1009.18
2023-04-22T07:10:24.938Z,1009.18
2023-04-22T07:11:25.134Z,1009.15
2023-04-22T07:12:25.312Z,1009.21
2023-04-22T07:13:25.475Z,1009.19
2023-04-22T07:14:25.652Z,1009.24
2023-04-22T07:15:25.838Z,1009.25
2023-04-22T07:16:26.089Z,1009.15
2023-04-22T07:17:26.254Z,1009.22
2023-04-22T07:18:26.408Z,1009.18
2023-04-22T07:19:26.615Z,1009.18
2023-04-22T07:20:26.796Z,1009.18
2023-04-22T07:21:26.990Z,1009.16
2023-04-22T07:22:27.143Z,1009.16
2023-04-22T07:23:27.339Z,1009.20
2023-04-22T07:24:27.529Z,1009.15
2023-04-22T07:25:27.720Z,1009.15
2023-04-22T07:26:27.928Z,1009.12
2023-04-22T07:27:28.069Z,1009.13
2023-04-22T07:28:28.264Z,1009.09
2023-04-22T07:29:28.434Z,1009.04
2023-04-22T07:30:28.636Z,1009.06
2023-04-22T07:31:28.839Z,1009.00
2023-04-22T07:32:29.033Z,1009.09
2023-04-22T07:33:29.196Z,1009.11
2023-04-22T07:34:29.393Z,1009.08
2023-04-22T07:35:29.668Z,1009.07
2023-04-22T07:36:29.770Z,1009.12
2023-04-22T07:37:29.970Z,1009.11
2023-04-22T07:38:30.117Z,1009.08
2023-04-22T07:39:30.322Z,1009.09
2023-04-22T07:40:30.454Z,1009.08
2023-04-22T07:41:30.676Z,1009.05
2023-04-22T07:42:30.841Z,1009.12
2023-04-22T07:43:31.027Z,1009.08
2023-04-22T07:44:31.227Z,1009.09
2023-04-22T07:45:31.433Z,1009.11
2023-04-22T07:46:31.590Z,1009.11
2023-04-22T07:47:31.793Z,1009.08
2023-04-22T07:48:31.899Z,1009.09
2023-04-22T07:49:32.141Z,1009.10
2023-04-22T07:50:32.284Z,1009.03
2023-04-22T07:51:32.480Z,1009.02
2023-04-22T07:52:32.635Z,1008.96
2023-04-22T07:53:32.792Z,1008.93
2023-04-22T07:54:32.987Z,1008.97
2023-04-22T07:55:33.188Z,1008.97
2023-04-22T07:56:33.352Z,1008.96
2023-04-22T07:57:33.508Z,1008.94
2023-04-22T07:58:33.704Z,1009.00
2023-04-22T07:59:33.895Z,1009.01
2023-04-22T08:00:34.104Z,1009.00
2023-04-22T08:01:34.268Z,1008.94
2023-04-22T08:02:34.558Z,1008.90
2023-04-22T08:03:34.805Z,1008.93
2023-04-22T08:04:34.855Z,1008.88
2023-04-22T08:05:34.996Z,1008.94
2023-04-22T08:06:35.207Z,1008.91
2023-04-22T08:07:35.362Z,1008.89
2023-04-22T08:08:35.547Z,1008.87
2023-04-22T08:09:35.743Z,1008.88
2023-04-22T08:10:35.926Z,1008.91
2023-04-22T08:11:36.133Z,1008.86
2023-04-22T08:12:36.334Z,1008.86
2023-04-22T08:13:36.500Z,1008.86
2023-04-22T08:14:36.670Z,1008.85
2023-04-22T08:15:36.891Z,1008.79
2023-04-22T08:16:37.058Z,1008.76
2023-04-22T08:17:37.217Z,1008.75
2023-04-22T08:18:37.416Z,1008.72
2023-04-22T08:19:37.759Z,1008.70
2023-04-22T08:20:37.777Z,1008.71
2023-04-22T08:21:37.984Z,1008.80
2023-04-22T08:22:38.140Z,1008.78
2023-04-22T08:23:38.359Z,1008.74
2023-04-22T08:24:38.522Z,1008.73
2023-04-22T08:25:38.717Z,1008.69
2023-04-22T08:26:38.924Z,1008.66
2023-04-22T08:27:39.845Z,1008.65
2023-04-22T08:28:39.375Z,1008.65
2023-04-22T08:29:39.695Z,1008.59
2023-04-22T08:30:39.678Z,1008.61
2023-04-22T08:31:39.975Z,1008.58
2023-04-22T08:32:40.110Z,1008.60
2023-04-22T08:33:40.226Z,1008.56
2023-04-22T08:34:40.864Z,1008.57
2023-04-22T08:35:40.600Z,1008.62
2023-04-22T08:36:40.798Z,1008.62
2023-04-22T08:37:41.058Z,1008.66
2023-04-22T08:38:41.154Z,1008.66
2023-04-22T08:39:41.565Z,1008.69
2023-04-22T08:40:41.521Z,1008.66
2023-04-22T08:41:41.789Z,1008.70
2023-04-22T08:42:41.893Z,1008.70
2023-04-22T08:43:42.084Z,1008.70
2023-04-22T08:44:42.278Z,1008.66
2023-04-22T08:45:42.485Z,1008.73
2023-04-22T08:46:42.721Z,1008.66
2023-04-22T08:47:42.934Z,1008.71
2023-04-22T08:48:43.038Z,1008.58
2023-04-22T08:49:43.197Z,1008.64
2023-04-22T08:50:43.385Z,1008.60
2023-04-22T08:51:43.619Z,1008.63
2023-04-22T08:52:43.758Z,1008.59
2023-04-22T08:53:43.957Z,1008.55
2023-04-22T08:54:44.153Z,1008.52
2023-04-22T08:55:44.406Z,1008.50
2023-04-22T08:56:44.592Z,1008.56
2023-04-22T08:57:44.758Z,1008.53
2023-04-22T08:58:44.894Z,1008.51
2023-04-22T08:59:45.090Z,1008.52
2023-04-22T09:00:45.283Z,1008.55
2023-04-22T09:01:45.575Z,1008.56
2023-04-22T09:02:45.793Z,1008.61
2023-04-22T09:03:45.949Z,1008.59
2023-04-22T09:04:46.055Z,1008.58
2023-04-22T09:05:46.252Z,1008.56
2023-04-22T09:06:46.478Z,1008.59
2023-04-22T09:07:46.668Z,1008.53
2023-04-22T09:08:46.866Z,1008.62
2023-04-22T09:09:47.028Z,1008.53
2023-04-22T09:10:47.212Z,1008.55
2023-04-22T09:11:47.456Z,1008.60
2023-04-22T09:12:47.570Z,1008.64
2023-04-22T09:13:47.764Z,1008.61
2023-04-22T09:14:47.966Z,1008.59
2023-04-22T09:15:48.168Z,1008.57
2023-04-22T09:16:48.497Z,1008.56
2023-04-22T09:17:48.552Z,1008.49
2023-04-22T09:18:48.704Z,1008.47
2023-04-22T09:19:48.905Z,1008.52
2023-04-22T09:20:49.167Z,1008.52
2023-04-22T09:21:50.822Z,1008.57
2023-04-22T09:22:49.497Z,1008.51
2023-04-22T09:23:49.656Z,1008.51
2023-04-22T09:24:49.865Z,1008.49
2023-04-22T09:25:50.059Z,1008.55
2023-04-22T09:26:50.283Z,1008.52
2023-04-22T09:27:50.421Z,1008.60
2023-04-22T09:28:50.658Z,1008.55
2023-04-22T09:29:50.800Z,1008.48
2023-04-22T09:30:51.021Z,1008.51
2023-04-22T09:31:51.213Z,1008.51
2023-04-22T09:32:51.400Z,1008.44
2023-04-22T09:33:51.553Z,1008.45
2023-04-22T09:34:51.768Z,1008.51
2023-04-22T09:35:51.987Z,1008.46
2023-04-22T09:36:52.212Z,1008.42
2023-04-22T09:37:52.351Z,1008.43
2023-04-22T09:38:52.562Z,1008.38
2023-04-22T09:39:52.767Z,1008.42
2023-04-22T09:40:52.973Z,1008.46
2023-04-22T09:41:53.252Z,1008.33
2023-04-22T09:42:53.437Z,1008.32
2023-04-22T09:43:53.602Z,1008.31
2023-04-22T09:44:53.818Z,1008.27
2023-04-22T09:45:54.079Z,1008.25
2023-04-22T09:46:54.266Z,1008.23
2023-04-22T09:47:54.511Z,1008.24
2023-04-22T09:48:55.511Z,1008.23
2023-04-22T09:49:55.954Z,1008.22
2023-04-22T09:50:56.012Z,1008.21
2023-04-22T09:51:55.255Z,1008.17
2023-04-22T09:52:56.279Z,1008.14
2023-04-22T09:53:55.641Z,1008.13
2023-04-22T09:54:55.869Z,1008.08
2023-04-22T09:55:56.060Z,1008.04
2023-04-22T09:56:56.239Z,1007.99
2023-04-22T09:57:56.419Z,1008.02
2023-04-22T09:58:56.625Z,1007.95
2023-04-22T09:59:56.808Z,1008.02
2023-04-22T10:00:57.094Z,1008.03
2023-04-22T10:01:57.185Z,1007.99
2023-04-22T10:02:57.422Z,1007.94
2023-04-22T10:03:57.599Z,1007.96
2023-04-22T10:04:57.785Z,1007.93
2023-04-22T10:05:57.969Z,1007.97
2023-04-22T10:06:58.207Z,1007.99
2023-04-22T10:07:58.969Z,1008.03
2023-04-22T10:08:58.565Z,1007.99
2023-04-22T10:09:58.792Z,1008.00
2023-04-22T10:10:58.950Z,1008.01
2023-04-22T10:11:59.173Z,1007.98
2023-04-22T10:12:59.358Z,1007.97
2023-04-22T10:13:59.556Z,1007.97
2023-04-22T10:14:59.728Z,1007.98
2023-04-22T10:15:59.957Z,1007.93
2023-04-22T10:17:00.293Z,1007.90
2023-04-22T10:18:00.373Z,1007.88
2023-04-22T10:19:00.499Z,1007.87
2023-04-22T10:20:01.385Z,1007.85
2023-04-22T10:21:00.942Z,1007.83
2023-04-22T10:22:01.169Z,1007.86
2023-04-22T10:23:01.359Z,1007.81
2023-04-22T10:24:01.536Z,1007.80
2023-04-22T10:25:01.759Z,1007.82
2023-04-22T10:26:01.924Z,1007.83
2023-04-22T10:27:02.136Z,1007.80
2023-04-22T10:28:02.969Z,1007.68
2023-04-22T10:29:02.483Z,1007.76
2023-04-22T10:30:02.698Z,1007.78
2023-04-22T10:31:02.930Z,1007.67
2023-04-22T10:32:03.169Z,1007.68
2023-04-22T10:33:03.324Z,1007.69
2023-04-22T10:34:03.546Z,1007.66
2023-04-22T10:35:03.742Z,1007.70
2023-04-22T10:36:03.993Z,1007.74
2023-04-22T10:37:04.171Z,1007.77
2023-04-22T10:38:04.355Z,1007.75
2023-04-22T10:39:04.543Z,1007.73
2023-04-22T10:40:04.716Z,1007.70
2023-04-22T10:41:04.940Z,1007.72
2023-04-22T10:42:05.204Z,1007.69
2023-04-22T10:43:05.648Z,1007.70
2023-04-22T10:44:05.535Z,1007.70
2023-04-22T10:45:05.801Z,1007.66
2023-04-22T10:46:05.984Z,1007.71
2023-04-22T10:47:06.150Z,1007.71
2023-04-22T10:48:06.379Z,1007.60
2023-04-22T10:49:06.935Z,1007.57
2023-04-22T10:50:06.791Z,1007.54
2023-04-22T10:51:06.963Z,1007.48
2023-04-22T10:52:07.343Z,1007.45
2023-04-22T10:53:07.405Z,1007.44
2023-04-22T10:54:07.701Z,1007.45
2023-04-22T10:55:07.934Z,1007.33
2023-04-22T10:56:07.990Z,1007.32
2023-04-22T10:57:08.266Z,1007.31
2023-04-22T10:58:08.439Z,1007.22
2023-04-22T10:59:08.626Z,1007.23
2023-04-22T11:00:08.839Z,1007.14
2023-04-22T11:01:09.063Z,1007.12
2023-04-22T11:02:09.291Z,1007.11
2023-04-22T11:03:09.536Z,1007.10
2023-04-22T11:04:09.841Z,1007.05
2023-04-22T11:05:09.888Z,1007.03
2023-04-22T11:06:10.076Z,1007.02
2023-04-22T11:07:10.296Z,1006.97
2023-04-22T11:08:10.488Z,1006.97
2023-04-22T11:09:10.698Z,1007.00
2023-04-22T11:10:10.916Z,1006.92
2023-04-22T11:11:11.116Z,1006.87
2023-04-22T11:12:11.378Z,1006.90
2023-04-22T11:13:11.512Z,1006.84
2023-04-22T11:14:11.749Z,1006.78
2023-04-22T11:15:11.934Z,1006.71
2023-04-22T11:16:12.233Z,1006.78
2023-04-22T11:17:12.337Z,1006.76
2023-04-22T11:18:12.578Z,1006.81
2023-04-22T11:19:12.682Z,1006.73
2023-04-22T11:20:12.902Z,1006.70
2023-04-22T11:21:13.099Z,1006.64
2023-04-22T11:22:13.334Z,1006.61
2023-04-22T11:23:13.512Z,1006.62
2023-04-22T11:24:13.691Z,1006.60
2023-04-22T11:25:13.940Z,1006.56
2023-04-22T11:26:14.110Z,1006.60
2023-04-22T11:27:14.462Z,1006.58
2023-04-22T11:28:14.546Z,1006.61
2023-04-22T11:29:14.725Z,1006.56
2023-04-22T11:30:15.080Z,1006.47
2023-04-22T11:31:15.171Z,1006.67
2023-04-22T11:32:15.315Z,1006.55
2023-04-22T11:33:15.504Z,1006.61
2023-04-22T11:34:15.769Z,1006.62
2023-04-22T11:35:16.033Z,1006.59
2023-04-22T11:36:16.124Z,1006.56
2023-04-22T11:37:16.318Z,1006.50
2023-04-22T11:38:16.506Z,1006.41
2023-04-22T11:39:16.733Z,1006.54
2023-04-22T11:40:30.230Z,1006.80
2023-04-22T11:41:17.129Z,1006.75
2023-04-22T11:42:17.361Z,1006.68
2023-04-22T11:43:17.501Z,1006.77
2023-04-22T11:44:17.714Z,1006.83
2023-04-22T11:45:17.926Z,1006.69
2023-04-22T11:46:19.311Z,1006.49
2023-04-22T11:47:18.337Z,1006.73
2023-04-22T11:48:18.503Z,1006.65
2023-04-22T11:49:18.719Z,1006.67
2023-04-22T11:50:18.950Z,1006.61
2023-04-22T11:51:19.136Z,1006.59
2023-04-22T11:52:19.661Z,1006.54
2023-04-22T11:53:19.565Z,1006.56
2023-04-22T11:54:19.773Z,1006.51
2023-04-22T11:55:20.006Z,1006.59
2023-04-22T11:56:20.224Z,1006.61
2023-04-22T11:57:20.430Z,1006.59
2023-04-22T11:58:20.617Z,1006.61
2023-04-22T11:59:22.647Z,1006.67
2023-04-22T12:00:21.115Z,1006.70
2023-04-22T12:01:21.259Z,1006.72
2023-04-22T12:02:21.648Z,1006.75
2023-04-22T12:03:21.728Z,1006.78
2023-04-22T12:04:21.904Z,1006.70
2023-04-22T12:05:22.036Z,1006.73
2023-04-22T12:06:22.191Z,1006.72
2023-04-22T12:07:22.431Z,1006.73
2023-04-22T12:08:22.679Z,1006.70